aviador You're here:

YABA Decoded Metar

in
Report Time2017-07-26 22:00:00
UTC Time2017-07-26 22:36:26
Flight Rules vfr VFR
Wind340° at 07 kt
W.Decomp.*RWY 32: 6.6 kt HW 2.4 kt RCW
RWY 05: 2.4 kt HW 6.6 kt LCW
W.Rank340° ranks 21
Current wind is below 340° avg. (7.4)
Visibility9999 m
Phenomena:N/A
Clouds:N/A
CeilingNone
Temp04°C
Dew Point04°C (100% RH)
AAT0.2°C
QNH1016 hPa
Raw Report
METAR YABA 262200Z AUTO 34007KT 9999 // NCD 04/04 Q1016=

Extra information for YABA:More info

Social comments